Time;durP1;ratioP1;P1;durP2;ratioP2;P2;SDS_P1;SDS_P2;PMS_P1;PMS_P2;Temp;Humidity;BMP_temperature;BMP_pressure;BME280_temperature;BME280_humidity;BME280_pressure;Samples;Min_cycle;Max_cycle;Signal;HPM_P1;HPM_P2
2023/01/17 00:01:59;;;;;;;10.00;6.85;;;9.10;99.90;;;;;;5053038;28;20484;-48
2023/01/17 00:09:57;;;;;;;7.45;5.25;;;9.30;99.90;;;;;;5053209;28;20035;-47
2023/01/17 00:12:27;;;;;;;7.97;6.10;;;9.20;99.90;;;;;;5064961;28;20057;-51
2023/01/17 00:14:54;;;;;;;8.18;5.43;;;9.20;99.90;;;;;;5051606;28;20036;-49
2023/01/17 00:17:21;;;;;;;7.10;6.00;;;9.30;99.90;;;;;;5067588;28;20086;-49
2023/01/17 01:35:09;;;;;;;4.20;2.95;;;9.00;99.90;;;;;;5055706;28;20032;-49
2023/01/17 01:37:34;;;;;;;5.22;3.08;;;8.90;99.90;;;;;;5055089;28;20032;-48
2023/01/17 01:40:00;;;;;;;4.32;3.30;;;8.90;99.90;;;;;;5054622;28;20481;-46
2023/01/17 01:42:26;;;;;;;5.93;2.33;;;8.80;99.90;;;;;;5002864;28;20079;-47
2023/01/17 01:44:54;;;;;;;4.65;2.97;;;8.80;99.90;;;;;;5036689;28;20048;-51
2023/01/17 01:47:35;;;;;;;4.32;2.80;;;8.90;99.90;;;;;;5054547;28;20033;-49
2023/01/17 01:50:04;;;;;;;6.43;3.92;;;8.90;99.90;;;;;;5055606;28;20085;-46
2023/01/17 01:52:32;;;;;;;4.35;3.50;;;8.90;99.90;;;;;;5012861;28;20046;-46
2023/01/17 01:55:03;;;;;;;5.03;2.70;;;8.90;99.90;;;;;;5012950;28;20085;-49
2023/01/17 01:57:32;;;;;;;2.97;2.22;;;8.70;99.90;;;;;;5012797;28;20091;-46
2023/01/17 02:00:04;;;;;;;4.68;2.60;;;8.80;99.90;;;;;;5012818;28;20080;-48
2023/01/17 02:02:30;;;;;;;4.18;3.17;;;8.70;99.90;;;;;;5012799;28;20038;-49
2023/01/17 02:04:58;;;;;;;4.25;2.40;;;8.70;99.90;;;;;;5012897;28;20029;-49
2023/01/17 02:07:31;;;;;;;4.93;2.40;;;8.70;99.90;;;;;;4996133;28;20532;-47
2023/01/17 02:09:57;;;;;;;5.32;2.85;;;8.80;99.90;;;;;;5012863;28;20037;-47
2023/01/17 02:12:24;;;;;;;3.40;1.80;;;8.80;99.90;;;;;;5012701;28;20545;-45
2023/01/17 02:14:50;;;;;;;4.55;3.20;;;8.70;99.90;;;;;;4996410;28;20034;-50
2023/01/17 02:17:18;;;;;;;5.30;2.92;;;8.70;99.90;;;;;;5012596;28;20048;-48
2023/01/17 02:20:12;;;;;;;5.15;2.88;;;8.70;99.90;;;;;;4979825;28;20476;-48
2023/01/17 02:23:03;;;;;;;3.42;2.25;;;8.70;99.90;;;;;;4972408;28;20033;-47
2023/01/17 02:25:54;;;;;;;5.65;3.90;;;8.80;99.90;;;;;;5054421;28;20381;-51
2023/01/17 02:28:52;;;;;;;5.78;4.07;;;8.80;99.90;;;;;;5054153;28;20036;-48
2023/01/17 02:31:32;;;;;;;2.92;1.80;;;8.80;99.90;;;;;;5054256;28;20052;-50
2023/01/17 02:34:01;;;;;;;5.97;3.20;;;8.80;99.90;;;;;;5054542;28;20060;-47
2023/01/17 02:36:35;;;;;;;4.95;3.70;;;8.70;99.90;;;;;;5054021;28;20068;-47
2023/01/17 02:39:16;;;;;;;11.07;6.88;;;8.80;99.90;;;;;;5054048;28;20033;-49
2023/01/17 02:41:50;;;;;;;8.75;5.30;;;9.10;99.90;;;;;;5054167;28;20029;-47
2023/01/17 02:44:18;;;;;;;2.65;1.98;;;9.20;99.90;;;;;;5054200;28;20033;-46
2023/01/17 02:47:07;;;;;;;5.15;2.50;;;;;;;;;;5053972;28;20107;-49
2023/01/17 02:49:33;;;;;;;2.88;1.95;;;;;;;;;;5011889;28;20592;-47
2023/01/17 02:52:14;;;;;;;2.63;1.58;;;;;;;;;;5012150;28;20096;-47
2023/01/17 02:55:13;;;;;;;5.13;3.10;;;9.80;99.90;;;;;;4978970;28;20128;-50
2023/01/17 02:58:14;;;;;;;5.85;3.20;;;9.70;99.90;;;;;;5011743;28;20064;-48
2023/01/17 03:01:08;;;;;;;11.70;8.73;;;9.80;99.90;;;;;;5011855;28;20045;-48
2023/01/17 03:03:34;;;;;;;10.90;7.85;;;;;;;;;;4979204;28;20070;-48
2023/01/17 03:06:13;;;;;;;5.68;2.20;;;9.90;99.90;;;;;;5011641;28;20033;-47
2023/01/17 03:08:42;;;;;;;4.15;2.22;;;9.60;99.90;;;;;;5011716;28;20145;-51
2023/01/17 03:11:11;;;;;;;3.85;2.30;;;9.30;99.90;;;;;;5011866;28;20069;-51
2023/01/17 03:13:37;;;;;;;3.80;2.13;;;9.10;99.90;;;;;;5008875;28;20021;-51
2023/01/17 03:16:08;;;;;;;4.75;2.20;;;9.00;99.90;;;;;;5011596;28;20109;-50
2023/01/17 03:18:34;;;;;;;3.70;2.40;;;;;;;;;;5011641;28;20061;-47
2023/01/17 03:21:00;;;;;;;3.38;2.25;;;9.50;99.90;;;;;;5040189;28;20037;-48
2023/01/17 03:23:26;;;;;;;3.97;2.47;;;9.60;99.90;;;;;;5053343;28;20078;-47
2023/01/17 03:25:51;;;;;;;5.70;3.40;;;9.70;99.90;;;;;;5053650;28;20036;-47
2023/01/17 03:28:17;;;;;;;5.88;3.97;;;9.80;99.90;;;;;;5053322;28;20469;-51
2023/01/17 03:30:43;;;;;;;4.20;2.88;;;10.10;99.90;;;;;;5034847;28;20033;-47
2023/01/17 03:33:08;;;;;;;5.57;3.40;;;10.10;99.90;;;;;;5034746;28;20036;-51
2023/01/17 03:35:35;;;;;;;4.30;3.38;;;;;;;;;;5001553;28;20037;-51
2023/01/17 03:38:01;;;;;;;9.75;6.05;;;;;;;;;;5053080;28;20036;-48
2023/01/17 03:40:26;;;;;;;6.88;5.05;;;10.00;99.90;;;;;;5034309;28;20044;-46
2023/01/17 03:42:52;;;;;;;5.20;3.47;;;9.60;99.90;;;;;;5053101;28;20025;-46
2023/01/17 03:45:18;;;;;;;6.55;3.85;;;9.50;99.90;;;;;;5034132;28;20131;-47
2023/01/17 03:47:44;;;;;;;5.18;2.50;;;9.60;99.90;;;;;;5050495;28;20036;-47
2023/01/17 03:50:12;;;;;;;2.80;1.70;;;9.40;99.90;;;;;;5051169;28;20040;-49
2023/01/17 03:52:38;;;;;;;4.57;2.60;;;9.20;99.90;;;;;;5053013;28;20501;-49
2023/01/17 03:55:05;;;;;;;2.05;1.45;;;9.30;99.90;;;;;;5050841;28;20060;-48
2023/01/17 03:57:31;;;;;;;7.95;3.28;;;;;;;;;;5053278;28;20116;-50
2023/01/17 03:59:57;;;;;;;3.78;2.17;;;;;;;;;;5052734;28;20037;-49
2023/01/17 04:02:23;;;;;;;2.63;1.33;;;;;;;;;;5053033;28;20029;-50
2023/01/17 04:04:50;;;;;;;4.13;1.67;;;;;;;;;;5053197;28;20040;-47
2023/01/17 04:07:16;;;;;;;3.67;2.10;;;;;;;;;;5059511;28;20033;-47
2023/01/17 04:09:42;;;;;;;2.35;1.65;;;;;;;;;;5059140;28;20037;-49
2023/01/17 04:12:08;;;;;;;3.75;2.00;;;;;;;;;;5059309;28;20127;-47
2023/01/17 04:14:34;;;;;;;3.40;1.60;;;;;;;;;;5059485;28;20056;-49
2023/01/17 04:17:02;;;;;;;5.00;2.17;;;;;;;;;;5058879;28;20067;-48
2023/01/17 04:19:29;;;;;;;3.50;2.30;;;;;;;;;;5057174;28;20056;-50
2023/01/17 04:21:55;;;;;;;4.20;2.92;;;;;;;;;;5059713;28;20405;-47
2023/01/17 04:24:21;;;;;;;5.82;3.97;;;9.60;99.90;;;;;;5059104;28;20025;-47
2023/01/17 04:26:46;;;;;;;6.10;4.20;;;9.40;99.90;;;;;;5059361;28;20397;-45
2023/01/17 04:29:12;;;;;;;12.05;6.85;;;;;;;;;;5057177;28;20040;-48
2023/01/17 04:31:38;;;;;;;11.50;6.97;;;9.20;99.90;;;;;;5059565;28;20036;-46
2023/01/17 04:34:04;;;;;;;9.23;7.03;;;9.20;99.90;;;;;;5057379;28;20431;-50
2023/01/17 04:36:29;;;;;;;10.02;6.65;;;9.20;99.90;;;;;;5059193;28;20063;-47
2023/01/17 04:38:55;;;;;;;8.73;6.80;;;9.50;99.90;;;;;;5040269;28;20389;-50
2023/01/17 04:41:21;;;;;;;9.57;6.93;;;9.70;99.90;;;;;;5059611;28;20546;-50
2023/01/17 04:43:47;;;;;;;7.20;5.15;;;;;;;;;;5059171;28;20029;-46
2023/01/17 04:46:13;;;;;;;7.40;4.65;;;10.00;99.90;;;;;;5058982;28;20481;-47
2023/01/17 04:48:38;;;;;;;7.13;5.10;;;10.00;99.90;;;;;;5058854;28;20017;-50
2023/01/17 04:51:05;;;;;;;6.53;4.40;;;10.00;99.90;;;;;;5057400;28;20393;-50
2023/01/17 04:53:31;;;;;;;7.88;4.35;;;10.00;99.90;;;;;;5040411;28;20047;-47
2023/01/17 04:55:57;;;;;;;6.22;4.65;;;10.00;99.90;;;;;;5057039;28;20511;-49
2023/01/17 04:58:23;;;;;;;10.20;6.10;;;9.90;99.90;;;;;;5057419;28;20033;-46
2023/01/17 05:00:49;;;;;;;8.45;5.82;;;9.90;99.90;;;;;;5024017;28;20041;-51
2023/01/17 05:03:18;;;;;;;7.03;5.30;;;;;;;;;;5059143;28;20056;-50
2023/01/17 05:05:46;;;;;;;9.02;5.38;;;9.20;99.90;;;;;;5023800;28;20044;-49
2023/01/17 05:08:12;;;;;;;6.30;4.45;;;8.90;99.90;;;;;;5058745;28;20473;-49
2023/01/17 05:10:38;;;;;;;6.38;4.93;;;8.40;99.90;;;;;;5058624;28;20448;-45
2023/01/17 05:13:04;;;;;;;5.65;4.15;;;8.50;99.90;;;;;;5058695;28;20112;-49
2023/01/17 05:15:30;;;;;;;6.05;4.35;;;8.20;99.90;;;;;;5058672;28;20029;-49
2023/01/17 05:17:56;;;;;;;7.22;4.75;;;8.30;99.90;;;;;;5054570;28;20075;-45
2023/01/17 05:20:24;;;;;;;6.40;4.53;;;8.30;99.90;;;;;;5055865;28;20032;-49
2023/01/17 05:22:54;;;;;;;8.43;4.43;;;8.20;99.90;;;;;;5055032;28;20021;-47
2023/01/17 05:25:24;;;;;;;6.55;5.05;;;;;;;;;;5053954;28;20503;-49
2023/01/17 05:27:50;;;;;;;7.43;5.72;;;8.40;99.90;;;;;;5055860;28;20028;-49
2023/01/17 05:30:17;;;;;;;9.35;5.22;;;8.40;99.90;;;;;;5053461;28;20037;-46
2023/01/17 05:32:51;;;;;;;8.73;6.90;;;8.40;99.90;;;;;;5053694;28;20481;-47
2023/01/17 05:35:18;;;;;;;7.70;5.43;;;8.20;99.90;;;;;;5055281;28;20053;-48
2023/01/17 05:37:48;;;;;;;8.60;5.55;;;8.20;99.90;;;;;;5055662;28;20082;-47
2023/01/17 05:40:24;;;;;;;7.45;5.00;;;8.30;99.90;;;;;;5054645;28;20500;-48
2023/01/17 05:42:52;;;;;;;8.65;6.43;;;8.20;99.90;;;;;;5036403;28;20416;-48
2023/01/17 05:45:20;;;;;;;21.00;15.18;;;8.20;99.90;;;;;;5055189;28;20033;-46
2023/01/17 05:47:48;;;;;;;15.48;11.20;;;8.20;99.90;;;;;;5055347;28;20028;-47
2023/01/17 05:50:17;;;;;;;12.80;9.77;;;8.30;99.90;;;;;;5050740;28;20064;-47
2023/01/17 05:52:53;;;;;;;11.45;8.57;;;8.50;99.90;;;;;;5063459;28;20041;-49
2023/01/17 05:55:19;;;;;;;9.43;7.50;;;8.50;99.90;;;;;;5032604;28;20060;-49
2023/01/17 05:57:46;;;;;;;9.85;7.10;;;;;;;;;;5050921;28;20135;-49
2023/01/17 06:00:13;;;;;;;8.80;6.20;;;8.80;99.90;;;;;;5051631;28;20127;-50
2023/01/17 06:02:39;;;;;;;9.32;5.93;;;8.70;99.90;;;;;;5032819;28;20045;-47
2023/01/17 06:05:05;;;;;;;8.00;5.82;;;;;;;;;;5048925;28;20033;-49
2023/01/17 06:07:31;;;;;;;5.95;4.65;;;;;;;;;;5042063;28;20103;-50
2023/01/17 06:09:57;;;;;;;6.45;4.63;;;;;;;;;;5049212;28;20036;-47
2023/01/17 06:12:23;;;;;;;8.20;4.60;;;;;;;;;;5049308;28;20032;-50
2023/01/17 06:14:50;;;;;;;11.75;6.45;;;;;;;;;;5050869;28;20033;-49
2023/01/17 06:17:15;;;;;;;51.80;26.25;;;9.00;99.90;;;;;;5050957;28;20028;-51
2023/01/17 06:19:41;;;;;;;9.07;6.45;;;9.00;99.90;;;;;;5048543;28;20114;-48
2023/01/17 06:22:07;;;;;;;6.72;5.28;;;8.90;99.90;;;;;;5052879;28;20381;-51
2023/01/17 06:24:33;;;;;;;7.82;5.28;;;8.70;99.90;;;;;;5047683;28;20043;-47
2023/01/17 06:26:59;;;;;;;7.80;5.25;;;8.70;99.90;;;;;;5050399;28;20032;-51
2023/01/17 06:29:25;;;;;;;10.07;5.82;;;8.80;99.90;;;;;;5012636;28;20024;-51
2023/01/17 06:31:51;;;;;;;13.95;7.68;;;8.80;99.90;;;;;;5047132;28;20051;-53
2023/01/17 06:34:17;;;;;;;9.10;6.50;;;8.80;99.90;;;;;;5028865;28;20051;-48
2023/01/17 06:36:43;;;;;;;10.00;6.65;;;8.90;99.90;;;;;;5042458;28;20370;-49
2023/01/17 06:39:09;;;;;;;8.90;6.38;;;8.80;99.90;;;;;;5043460;28;20078;-49
2023/01/17 06:41:35;;;;;;;11.07;7.10;;;8.80;99.90;;;;;;5040012;28;20051;-48
2023/01/17 06:44:01;;;;;;;6.20;4.00;;;8.80;99.90;;;;;;5045131;28;20120;-51
2023/01/17 06:46:27;;;;;;;6.13;3.22;;;8.60;99.90;;;;;;5050491;28;20052;-50
2023/01/17 06:48:53;;;;;;;6.05;3.15;;;8.40;99.90;;;;;;5034251;28;20033;-51
2023/01/17 06:51:19;;;;;;;5.32;3.60;;;8.30;99.90;;;;;;5037964;28;20053;-51
2023/01/17 06:53:46;;;;;;;5.07;3.58;;;8.30;99.90;;;;;;5036563;28;20068;-49
2023/01/17 06:56:11;;;;;;;6.57;3.70;;;8.30;99.90;;;;;;5048219;28;20048;-48
2023/01/17 06:58:37;;;;;;;4.40;3.08;;;8.40;99.90;;;;;;5050777;28;20032;-51
2023/01/17 07:01:11;;;;;;;6.65;4.90;;;8.40;99.90;;;;;;5046153;28;20083;-50
2023/01/17 07:03:37;;;;;;;7.90;5.97;;;8.50;99.90;;;;;;5042429;28;20496;-50
2023/01/17 07:06:04;;;;;;;8.75;6.30;;;8.90;99.90;;;;;;5051272;28;20035;-48
2023/01/17 07:08:31;;;;;;;10.57;7.97;;;9.20;99.90;;;;;;5051250;28;20025;-50
2023/01/17 07:10:58;;;;;;;11.95;8.30;;;;;;;;;;5046836;28;20029;-50
2023/01/17 07:13:24;;;;;;;19.05;13.85;;;;;;;;;;5048973;28;20515;-50
2023/01/17 07:15:51;;;;;;;17.70;11.88;;;;;;;;;;5047746;28;20033;-50
2023/01/17 07:18:19;;;;;;;4.80;3.10;;;9.50;99.90;;;;;;5038475;28;20139;-51
2023/01/17 07:20:45;;;;;;;3.10;1.85;;;;;;;;;;5051854;28;20045;-51
2023/01/17 07:23:11;;;;;;;2.67;1.63;;;9.20;99.90;;;;;;5052458;28;20025;-51
2023/01/17 07:25:37;;;;;;;2.97;1.98;;;9.10;99.90;;;;;;5046160;28;20021;-49
2023/01/17 07:28:03;;;;;;;1.50;1.25;;;9.10;99.90;;;;;;5033432;28;20392;-51
2023/01/17 07:30:29;;;;;;;3.30;2.17;;;9.00;99.90;;;;;;5050510;28;20017;-49
2023/01/17 07:32:55;;;;;;;2.67;1.92;;;9.00;99.90;;;;;;5047470;28;20041;-49
2023/01/17 07:35:22;;;;;;;4.03;2.90;;;9.10;99.90;;;;;;5043105;28;20040;-49
2023/01/17 07:37:49;;;;;;;3.80;2.38;;;9.10;99.90;;;;;;5046470;28;20033;-49
2023/01/17 07:40:16;;;;;;;2.45;1.40;;;9.10;99.90;;;;;;5047404;28;20124;-49
2023/01/17 07:42:43;;;;;;;1.55;1.00;;;9.20;99.90;;;;;;5042472;28;20033;-50
2023/01/17 07:45:10;;;;;;;0.80;0.70;;;9.10;99.90;;;;;;5045134;28;20387;-50
2023/01/17 07:47:36;;;;;;;1.70;0.95;;;9.20;99.90;;;;;;5047556;28;20036;-51
2023/01/17 07:50:03;;;;;;;0.85;0.60;;;9.20;99.90;;;;;;5049640;28;20025;-49
2023/01/17 07:52:29;;;;;;;0.88;0.68;;;9.10;99.90;;;;;;5036627;28;20126;-51
2023/01/17 07:54:54;;;;;;;3.35;0.80;;;9.10;99.90;;;;;;5030898;28;20096;-50
2023/01/17 07:57:20;;;;;;;2.33;1.52;;;9.10;99.90;;;;;;5044228;28;20569;-52
2023/01/17 07:59:46;;;;;;;1.90;1.23;;;9.20;99.90;;;;;;5045224;28;20068;-49
2023/01/17 08:02:30;;;;;;;1.77;1.23;;;9.30;99.90;;;;;;5049326;28;20076;-48
2023/01/17 08:04:56;;;;;;;2.10;1.40;;;9.50;99.90;;;;;;5049655;28;20025;-51
2023/01/17 08:07:21;;;;;;;4.13;3.08;;;9.60;99.90;;;;;;5049601;28;20025;-49
2023/01/17 08:09:48;;;;;;;3.03;2.13;;;10.20;99.90;;;;;;5051586;28;20029;-50
2023/01/17 08:12:15;;;;;;;5.90;3.70;;;;;;;;;;5051438;28;20033;-51
2023/01/17 08:14:40;;;;;;;14.52;7.00;;;10.80;99.90;;;;;;5050091;28;20033;-49
2023/01/17 08:17:07;;;;;;;11.90;6.50;;;;;;;;;;5051760;28;20044;-52
2023/01/17 08:19:33;;;;;;;6.95;5.13;;;12.80;99.90;;;;;;5046693;28;20025;-47
2023/01/17 08:21:59;;;;;;;10.30;6.20;;;;;;;;;;5048686;28;20025;-49
2023/01/17 08:24:25;;;;;;;9.15;5.88;;;13.20;99.90;;;;;;5022814;28;20041;-50
2023/01/17 08:26:53;;;;;;;5.05;3.38;;;;;;;;;;5030901;28;20366;-50
2023/01/17 08:29:20;;;;;;;3.63;3.20;;;12.90;99.90;;;;;;5050752;28;20040;-49
2023/01/17 08:31:46;;;;;;;7.60;5.20;;;;;;;;;;5049451;28;20033;-51
2023/01/17 08:34:13;;;;;;;11.90;7.88;;;13.60;99.90;;;;;;5048591;28;20060;-48
2023/01/17 08:36:41;;;;;;;9.85;7.95;;;13.70;99.90;;;;;;5050471;28;20462;-48
2023/01/17 08:39:08;;;;;;;8.98;7.10;;;13.40;99.90;;;;;;5063249;28;20053;-49
2023/01/17 08:41:34;;;;;;;6.07;5.15;;;13.80;99.90;;;;;;5048357;28;20078;-48
2023/01/17 08:44:01;;;;;;;6.10;5.43;;;15.40;99.90;;;;;;5050684;28;20124;-49
2023/01/17 08:46:27;;;;;;;5.95;4.20;;;18.20;99.90;;;;;;5028136;28;20046;-49
2023/01/17 08:49:01;;;;;;;4.03;3.10;;;16.90;99.90;;;;;;5023396;28;20457;-50
2023/01/17 08:51:28;;;;;;;5.32;3.38;;;;;;;;;;4988330;28;20038;-48
2023/01/17 08:53:55;;;;;;;7.50;4.90;;;16.80;99.90;;;;;;4994121;28;20046;-49
2023/01/17 08:56:22;;;;;;;7.45;5.30;;;15.50;99.90;;;;;;4994843;28;20034;-48
2023/01/17 08:58:48;;;;;;;4.80;3.75;;;14.30;99.90;;;;;;4993896;28;20038;-48
2023/01/17 09:01:15;;;;;;;2.78;1.60;;;14.20;99.90;;;;;;4993205;28;20038;-49
2023/01/17 09:03:40;;;;;;;2.60;1.63;;;13.00;99.90;;;;;;4993881;28;20034;-48
2023/01/17 09:06:11;;;;;;;1.25;0.75;;;;;;;;;;4990845;28;20046;-49
2023/01/17 09:08:38;;;;;;;0.57;0.52;;;11.60;99.90;;;;;;4997171;28;20549;-49
2023/01/17 09:11:05;;;;;;;0.40;0.40;;;11.50;99.90;;;;;;4977184;28;20073;-49
2023/01/17 09:13:31;;;;;;;0.65;0.47;;;11.60;99.90;;;;;;4993482;28;20045;-49
2023/01/17 09:15:58;;;;;;;0.65;0.57;;;11.60;99.90;;;;;;4993982;28;20399;-49
2023/01/17 09:18:25;;;;;;;1.25;1.02;;;11.80;99.90;;;;;;5011421;28;20068;-49
2023/01/17 09:20:54;;;;;;;1.77;1.08;;;12.00;99.90;;;;;;4996003;28;20391;-49
2023/01/17 09:23:24;;;;;;;1.95;1.75;;;12.20;99.90;;;;;;5030281;28;20565;-48
2023/01/17 09:25:58;;;;;;;2.92;2.13;;;12.80;99.90;;;;;;5025559;28;20039;-49
2023/01/17 09:28:25;;;;;;;4.55;3.55;;;13.20;99.90;;;;;;5022280;28;20026;-49
2023/01/17 09:30:51;;;;;;;23.58;6.90;;;13.60;99.90;;;;;;5030189;28;20079;-49
2023/01/17 09:33:17;;;;;;;6.00;3.20;;;13.60;99.90;;;;;;5033966;28;20034;-49
2023/01/17 09:35:44;;;;;;;5.00;3.20;;;13.30;99.90;;;;;;5031631;28;20120;-48
2023/01/17 09:38:10;;;;;;;4.70;2.20;;;13.10;99.90;;;;;;5030725;28;20549;-48
2023/01/17 09:40:41;;;;;;;6.82;2.90;;;13.10;99.90;;;;;;5041478;28;20125;-49
2023/01/17 09:43:30;;;;;;;3.67;2.55;;;13.00;99.90;;;;;;5033515;28;20041;-48
2023/01/17 09:45:56;;;;;;;6.05;3.67;;;12.90;99.90;;;;;;5030484;28;20049;-49
2023/01/17 09:48:35;;;;;;;8.27;5.38;;;12.70;99.90;;;;;;5027938;28;20499;-49
2023/01/17 09:51:17;;;;;;;4.13;2.55;;;12.70;99.90;;;;;;5031068;28;20131;-49
2023/01/17 09:53:43;;;;;;;5.43;3.75;;;12.60;99.90;;;;;;5030937;28;20103;-49
2023/01/17 09:56:28;;;;;;;5.13;3.30;;;12.50;99.90;;;;;;5052375;28;20450;-48
2023/01/17 09:59:23;;;;;;;4.43;2.60;;;12.40;99.90;;;;;;5050342;28;20385;-48
2023/01/17 10:02:17;;;;;;;4.93;3.45;;;12.20;99.90;;;;;;5047780;28;20033;-49
2023/01/17 10:05:22;;;;;;;2.58;1.90;;;12.40;99.90;;;;;;5043685;28;20451;-49
2023/01/17 10:08:15;;;;;;;3.22;1.58;;;12.60;99.90;;;;;;5047815;28;20037;-48
2023/01/17 10:11:01;;;;;;;1.73;1.40;;;12.60;99.90;;;;;;5052957;28;20048;-48
2023/01/17 10:13:55;;;;;;;3.28;1.77;;;12.50;99.90;;;;;;5048013;28;20025;-48
2023/01/17 10:16:43;;;;;;;3.33;1.15;;;12.70;99.90;;;;;;5048334;28;20032;-49
2023/01/17 10:19:38;;;;;;;3.47;1.75;;;12.60;99.90;;;;;;5046270;28;20433;-49
2023/01/17 10:22:36;;;;;;;2.97;2.10;;;12.70;99.90;;;;;;5045885;28;20048;-48
2023/01/17 10:25:32;;;;;;;4.22;2.72;;;12.60;99.90;;;;;;5048231;28;20036;-49
2023/01/17 10:28:32;;;;;;;4.05;2.28;;;12.70;99.90;;;;;;5042587;28;20045;-49
2023/01/17 10:31:06;;;;;;;4.78;3.40;;;13.10;99.90;;;;;;5031390;28;20076;-49
2023/01/17 10:33:47;;;;;;;4.60;3.53;;;13.30;99.90;;;;;;5051460;28;20028;-49
2023/01/17 10:36:20;;;;;;;4.10;3.03;;;13.20;99.90;;;;;;5051343;28;20025;-50
2023/01/17 10:38:50;;;;;;;4.70;3.30;;;13.30;99.90;;;;;;5051559;28;20481;-49
2023/01/17 10:41:23;;;;;;;10.40;5.43;;;13.50;99.90;;;;;;5045124;28;20114;-49
2023/01/17 10:43:48;;;;;;;;;;;13.50;99.90;;;;;;5047412;28;20033;-49
2023/01/17 10:46:22;;;;;;;7.13;3.20;;;13.50;99.90;;;;;;5045476;28;20047;-49
2023/01/17 10:48:51;;;;;;;4.95;2.97;;;13.30;99.90;;;;;;5051627;28;20117;-49
2023/01/17 10:51:20;;;;;;;4.38;2.58;;;13.10;99.90;;;;;;5045572;28;20047;-51
2023/01/17 10:54:10;;;;;;;4.93;3.55;;;13.00;99.90;;;;;;5049807;28;20036;-51
2023/01/17 10:56:39;;;;;;;3.97;2.30;;;12.90;99.90;;;;;;5050745;28;20060;-50
2023/01/17 10:59:30;;;;;;;5.50;2.95;;;13.00;99.90;;;;;;5050854;28;20041;-50
2023/01/17 11:01:57;;;;;;;4.40;2.53;;;12.90;99.90;;;;;;5049548;28;20025;-49
2023/01/17 11:04:35;;;;;;;8.25;3.97;;;12.70;99.90;;;;;;5043778;28;20029;-47
2023/01/17 11:07:21;;;;;;;6.15;4.03;;;12.60;99.90;;;;;;5046951;28;20029;-48
2023/01/17 11:09:52;;;;;;;6.05;3.90;;;12.60;99.90;;;;;;5040719;28;20033;-51
2023/01/17 11:12:21;;;;;;;8.15;4.75;;;12.40;99.90;;;;;;5038696;28;20028;-51
2023/01/17 11:15:09;;;;;;;5.63;3.70;;;12.40;99.90;;;;;;5045383;28;20037;-51
2023/01/17 11:17:39;;;;;;;7.65;4.78;;;12.40;99.90;;;;;;5050588;28;20429;-51
2023/01/17 11:20:16;;;;;;;10.10;4.72;;;12.20;99.90;;;;;;5050986;28;20533;-51
2023/01/17 11:22:58;;;;;;;9.05;6.95;;;12.10;99.90;;;;;;5049594;28;20040;-51
2023/01/17 11:25:25;;;;;;;6.80;5.32;;;12.10;99.90;;;;;;5050757;28;20485;-51
2023/01/17 11:28:00;;;;;;;55.83;16.48;;;12.10;99.90;;;;;;5050113;28;20116;-51
2023/01/17 11:30:29;;;;;;;11.02;6.32;;;12.10;99.90;;;;;;5048802;28;20025;-51
2023/01/17 11:33:05;;;;;;;7.78;5.88;;;12.10;99.90;;;;;;5049641;28;20486;-51
2023/01/17 11:35:36;;;;;;;14.60;12.23;;;12.00;99.90;;;;;;5048731;28;21104;-52
2023/01/17 11:38:01;;;;;;;15.63;6.68;;;12.00;99.90;;;;;;5049945;28;20107;-50
2023/01/17 11:40:42;;;;;;;8.75;6.75;;;11.90;99.90;;;;;;5033121;28;20132;-47
2023/01/17 11:43:13;;;;;;;8.52;5.93;;;;;;;;;;5048859;28;20036;-45
2023/01/17 11:45:40;;;;;;;7.30;4.85;;;11.80;99.90;;;;;;5049683;28;20024;-48
2023/01/17 11:48:11;;;;;;;8.93;5.82;;;11.70;99.90;;;;;;5049432;28;20516;-52
2023/01/17 11:51:24;;;;;;;6.97;4.03;;;11.60;99.90;;;;;;5050172;28;20494;-50
2023/01/17 11:53:52;;;;;;;11.50;6.38;;;11.60;99.90;;;;;;4950611;29;20407;-51
2023/01/17 11:56:32;;;;;;;26.95;11.77;;;11.60;99.90;;;;;;4951944;29;20065;-50
2023/01/17 11:59:36;;;;;;;11.95;8.23;;;11.60;99.90;;;;;;4952874;29;20114;-50
2023/01/17 12:02:20;;;;;;;11.88;5.35;;;11.60;99.90;;;;;;4895875;29;20048;-50
2023/01/17 12:05:07;;;;;;;10.63;7.25;;;11.60;99.90;;;;;;4895898;29;20045;-50
2023/01/17 12:07:52;;;;;;;19.63;8.07;;;11.60;99.90;;;;;;4895808;29;20029;-50
2023/01/17 12:10:29;;;;;;;8.65;6.32;;;11.70;99.90;;;;;;4895780;29;20219;-50
2023/01/17 12:16:45;;;;;;;16.55;7.90;;;11.50;99.90;;;;;;4896072;29;20557;-50
2023/01/17 12:19:23;;;;;;;13.65;8.90;;;11.50;99.90;;;;;;4895561;29;20402;-50
2023/01/17 12:21:48;;;;;;;91.22;24.38;;;11.60;99.90;;;;;;4895866;29;20036;-50
2023/01/17 12:24:44;;;;;;;43.92;19.92;;;11.60;99.90;;;;;;4895600;29;20461;-50
2023/01/17 12:27:28;;;;;;;50.13;17.73;;;11.80;99.90;;;;;;4898653;29;20497;-50
2023/01/17 12:30:25;;;;;;;44.28;15.60;;;11.80;99.90;;;;;;4955139;28;20034;-50
2023/01/17 12:33:03;;;;;;;40.33;15.40;;;11.80;99.90;;;;;;5015057;28;20042;-50
2023/01/17 12:35:49;;;;;;;63.67;21.35;;;11.80;99.90;;;;;;5014767;28;20128;-50
2023/01/17 12:38:27;;;;;;;23.63;11.43;;;12.00;99.90;;;;;;5034873;28;20037;-50
2023/01/17 12:41:04;;;;;;;40.03;14.77;;;12.00;99.90;;;;;;5056914;28;20029;-50
2023/01/17 12:43:38;;;;;;;34.17;14.48;;;12.10;99.90;;;;;;5037733;28;20083;-49
2023/01/17 12:46:41;;;;;;;18.70;12.10;;;12.10;99.90;;;;;;5056802;28;20029;-50
2023/01/17 12:49:24;;;;;;;55.45;21.08;;;12.10;99.90;;;;;;5014530;28;20069;-50
2023/01/17 12:52:00;;;;;;;71.43;27.13;;;12.10;99.90;;;;;;5014473;28;20048;-49
2023/01/17 12:54:40;;;;;;;58.92;24.73;;;12.40;99.90;;;;;;5014223;28;20093;-50
2023/01/17 12:57:30;;;;;;;36.83;17.15;;;12.50;99.90;;;;;;5014427;28;20506;-50
2023/01/17 13:00:07;;;;;;;51.45;22.67;;;12.50;99.90;;;;;;5014452;28;20438;-50
2023/01/17 13:02:46;;;;;;;58.92;26.77;;;12.60;99.90;;;;;;5014620;28;20501;-50
2023/01/17 13:05:22;;;;;;;24.05;14.90;;;12.60;99.90;;;;;;5014136;28;20038;-50
2023/01/17 13:07:59;;;;;;;21.85;12.00;;;12.70;99.90;;;;;;4997899;28;20565;-49
2023/01/17 13:10:43;;;;;;;33.65;16.85;;;12.70;99.90;;;;;;5014048;28;20033;-50
2023/01/17 13:13:21;;;;;;;29.30;14.98;;;12.70;99.90;;;;;;5014106;28;20033;-50
2023/01/17 13:15:50;;;;;;;14.63;9.50;;;12.50;99.90;;;;;;5014048;28;20426;-50
2023/01/17 13:18:22;;;;;;;22.83;12.65;;;12.40;99.90;;;;;;5013816;28;20113;-50
2023/01/17 13:20:51;;;;;;;48.75;20.70;;;12.40;99.90;;;;;;4995557;28;20054;-50
2023/01/17 13:23:41;;;;;;;32.35;14.48;;;12.50;99.90;;;;;;5013863;28;20072;-49
2023/01/17 13:26:38;;;;;;;17.63;9.30;;;12.40;99.90;;;;;;5037187;28;20115;-50
2023/01/17 13:29:12;;;;;;;28.13;13.40;;;12.30;99.90;;;;;;5056110;28;20029;-49
2023/01/17 13:31:57;;;;;;;19.83;11.95;;;12.40;99.90;;;;;;5055962;28;20148;-50
2023/01/17 13:34:32;;;;;;;21.02;9.85;;;12.40;99.90;;;;;;5036729;28;20041;-51
2023/01/17 13:37:04;;;;;;;35.92;13.80;;;12.40;99.90;;;;;;5055137;28;20033;-50
2023/01/17 13:39:48;;;;;;;15.40;8.48;;;12.40;99.90;;;;;;5054984;28;20041;-51
2023/01/17 13:42:37;;;;;;;11.80;6.82;;;12.50;99.90;;;;;;5055236;28;20100;-51
2023/01/17 13:45:21;;;;;;;26.63;11.73;;;12.50;99.90;;;;;;5055442;28;20385;-50
2023/01/17 13:47:47;;;;;;;13.68;7.45;;;12.50;99.90;;;;;;5053694;28;20115;-49
2023/01/17 13:50:51;;;;;;;8.43;3.63;;;12.60;99.90;;;;;;5055232;28;20104;-50
2023/01/17 13:53:37;;;;;;;8.20;4.57;;;12.50;99.90;;;;;;5013295;28;20030;-49
2023/01/17 13:56:18;;;;;;;10.18;6.07;;;12.40;99.90;;;;;;4980548;28;20068;-49
2023/01/17 13:58:48;;;;;;;6.55;4.00;;;12.60;99.90;;;;;;5012959;28;20022;-50
2023/01/17 14:01:37;;;;;;;12.50;6.70;;;12.50;99.90;;;;;;5013180;28;20403;-49
2023/01/17 14:04:08;;;;;;;9.40;5.50;;;12.60;99.90;;;;;;5013279;28;20038;-50
2023/01/17 14:06:40;;;;;;;7.85;5.15;;;12.40;99.90;;;;;;5012964;28;20030;-49
2023/01/17 14:09:11;;;;;;;10.65;5.50;;;12.40;99.90;;;;;;5013104;28;20497;-50
2023/01/17 14:11:57;;;;;;;6.35;4.35;;;12.30;99.90;;;;;;5012900;28;20036;-50
2023/01/17 14:14:44;;;;;;;7.97;4.38;;;12.40;99.90;;;;;;5012609;28;20513;-50
2023/01/17 14:17:25;;;;;;;8.15;4.45;;;12.30;99.90;;;;;;5012997;28;20029;-51
2023/01/17 14:19:52;;;;;;;7.67;5.73;;;12.30;99.90;;;;;;5012811;28;20049;-50
2023/01/17 14:22:17;;;;;;;10.15;4.25;;;12.40;99.90;;;;;;5012607;28;20041;-49
2023/01/17 14:25:21;;;;;;;6.22;3.75;;;12.40;99.90;;;;;;5012576;28;20379;-50
2023/01/17 14:27:54;;;;;;;6.63;3.97;;;12.30;99.90;;;;;;5043577;28;20099;-50
2023/01/17 14:30:21;;;;;;;11.70;6.05;;;12.30;99.90;;;;;;5054849;28;20400;-49
2023/01/17 14:33:04;;;;;;;8.52;4.95;;;12.30;99.90;;;;;;5054427;28;20028;-50
2023/01/17 14:35:33;;;;;;;9.05;6.15;;;12.30;99.90;;;;;;5085895;28;20036;-51
2023/01/17 14:38:04;;;;;;;12.00;6.43;;;12.20;99.90;;;;;;5050724;28;20489;-51
2023/01/17 14:40:34;;;;;;;11.73;8.35;;;12.30;99.90;;;;;;5050551;28;20056;-50
2023/01/17 14:43:13;;;;;;;12.00;7.28;;;12.30;99.90;;;;;;5050835;28;20056;-50
2023/01/17 14:45:41;;;;;;;17.30;11.35;;;12.30;99.90;;;;;;5050715;28;20524;-49
2023/01/17 14:48:17;;;;;;;11.25;6.80;;;12.30;99.90;;;;;;5050728;28;20032;-50
2023/01/17 14:50:46;;;;;;;9.40;6.82;;;12.30;99.90;;;;;;5013133;28;20120;-50
2023/01/17 14:53:12;;;;;;;12.65;8.05;;;12.30;99.90;;;;;;5010660;28;20398;-51